Time;durP1;ratioP1;P1;durP2;ratioP2;P2;SDS_P1;SDS_P2;PMS_P1;PMS_P2;Temp;Humidity;BMP_temperature;BMP_pressure;BME280_temperature;BME280_humidity;BME280_pressure;Samples;Min_cycle;Max_cycle;Signal;HPM_P1;HPM_P2
2022/01/01 00:02:35;;;;;;;4.47;3.30;;;18.10;70.80;;;;;;10501027;28;20515;-45
2022/01/01 00:07:40;;;;;;;3.65;3.22;;;18.10;70.90;;;;;;10495341;28;20028;-44
2022/01/01 00:12:42;;;;;;;5.07;3.25;;;18.10;70.90;;;;;;10477264;28;20044;-44
2022/01/01 00:17:43;;;;;;;5.22;4.43;;;18.30;70.40;;;;;;10494335;28;20033;-45
2022/01/01 00:22:44;;;;;;;4.80;3.58;;;18.30;70.20;;;;;;10476301;28;20084;-44
2022/01/01 00:27:45;;;;;;;4.38;3.65;;;18.30;70.10;;;;;;10493949;28;20063;-45
2022/01/01 00:32:45;;;;;;;4.07;3.30;;;18.20;70.30;;;;;;10494336;28;20484;-45
2022/01/01 00:37:46;;;;;;;5.82;3.85;;;18.20;70.50;;;;;;10495313;28;20039;-47
2022/01/01 00:42:47;;;;;;;5.22;3.90;;;18.20;70.40;;;;;;10499672;28;20028;-43
2022/01/01 00:47:47;;;;;;;5.53;3.70;;;18.30;70.10;;;;;;10535635;28;20032;-43
2022/01/01 00:52:50;;;;;;;4.75;3.80;;;18.30;70.20;;;;;;10544507;28;20027;-44
2022/01/01 00:57:50;;;;;;;4.80;3.42;;;18.20;70.20;;;;;;10545249;28;20058;-44
2022/01/01 01:02:51;;;;;;;5.25;3.42;;;18.30;70.30;;;;;;10490099;28;20016;-43
2022/01/01 01:07:52;;;;;;;5.25;3.50;;;18.30;70.10;;;;;;10485007;28;20038;-43
2022/01/01 01:12:53;;;;;;;5.10;3.78;;;18.30;70.10;;;;;;10501582;28;20035;-44
2022/01/01 01:17:55;;;;;;;5.00;3.65;;;18.20;70.10;;;;;;10484877;28;20102;-44
2022/01/01 01:22:56;;;;;;;6.32;3.92;;;18.20;70.30;;;;;;10484137;28;20047;-43
2022/01/01 01:28:05;;;;;;;5.78;3.55;;;18.30;70.10;;;;;;10502307;28;20025;-43
2022/01/01 01:33:10;;;;;;;5.00;3.90;;;18.30;70.10;;;;;;10485323;28;20040;-44
2022/01/01 01:38:11;;;;;;;5.90;4.45;;;18.30;70.10;;;;;;10483389;28;20032;-47
2022/01/01 01:43:13;;;;;;;4.72;3.30;;;18.20;70.10;;;;;;10490955;28;20031;-46
2022/01/01 01:48:13;;;;;;;4.20;3.53;;;18.30;70.10;;;;;;10524960;28;20028;-46
2022/01/01 01:53:14;;;;;;;4.82;3.63;;;18.30;70.00;;;;;;10525376;28;20110;-47
2022/01/01 01:58:16;;;;;;;5.30;4.18;;;18.30;70.00;;;;;;10514034;28;20383;-44
2022/01/01 02:03:17;;;;;;;5.35;3.92;;;18.20;70.10;;;;;;10489113;28;20104;-44
2022/01/01 02:08:18;;;;;;;5.40;4.10;;;18.20;70.10;;;;;;10500793;28;20111;-46
2022/01/01 02:13:32;;;;;;;6.15;4.80;;;18.20;70.10;;;;;;10482577;28;20028;-45
2022/01/01 02:18:32;;;;;;;5.25;4.30;;;18.20;70.00;;;;;;10484520;28;20161;-45
2022/01/01 02:23:33;;;;;;;5.80;4.10;;;18.30;70.10;;;;;;10481671;28;20174;-44
2022/01/01 02:28:34;;;;;;;4.80;3.70;;;18.20;70.10;;;;;;10482432;28;20025;-43
2022/01/01 02:33:37;;;;;;;6.30;4.78;;;18.30;70.10;;;;;;10495232;28;20034;-43
2022/01/01 02:38:38;;;;;;;6.60;4.07;;;18.30;70.10;;;;;;10499025;28;20022;-43
2022/01/01 02:43:45;;;;;;;5.85;4.70;;;18.20;70.00;;;;;;10510690;28;20034;-44
2022/01/01 02:48:46;;;;;;;5.22;4.63;;;18.20;70.10;;;;;;10540772;28;20055;-45
2022/01/01 02:53:46;;;;;;;4.93;4.20;;;18.20;70.10;;;;;;10540880;28;20020;-43
2022/01/01 02:58:47;;;;;;;6.38;4.07;;;18.30;69.80;;;;;;10527308;28;20116;-51
2022/01/01 03:03:48;;;;;;;5.18;4.18;;;18.30;69.80;;;;;;10503813;28;20397;-44
2022/01/01 03:08:52;;;;;;;5.80;4.65;;;18.20;69.80;;;;;;10498482;28;20033;-50
2022/01/01 03:13:53;;;;;;;5.22;3.67;;;18.20;70.00;;;;;;10498220;28;20067;-49
2022/01/01 03:18:53;;;;;;;4.85;3.95;;;18.30;69.60;;;;;;10498027;28;20048;-44
2022/01/01 03:23:54;;;;;;;5.10;4.03;;;18.30;69.60;;;;;;10509673;28;20055;-43
2022/01/01 03:28:55;;;;;;;6.25;4.20;;;18.20;69.70;;;;;;10492585;28;20400;-43
2022/01/01 03:33:58;;;;;;;4.30;3.55;;;18.20;69.80;;;;;;10497755;28;20157;-45
2022/01/01 03:38:59;;;;;;;6.43;4.10;;;18.30;69.70;;;;;;10497263;28;20066;-48
2022/01/01 03:44:01;;;;;;;4.25;3.75;;;18.30;69.60;;;;;;10525239;28;20422;-45
2022/01/01 03:49:02;;;;;;;6.53;4.18;;;18.30;69.70;;;;;;10510853;28;20032;-44
2022/01/01 03:54:03;;;;;;;5.03;3.70;;;18.20;69.80;;;;;;10496369;28;20500;-44
2022/01/01 03:59:03;;;;;;;5.75;4.40;;;18.20;69.90;;;;;;10509975;28;20032;-47
2022/01/01 04:04:04;;;;;;;6.13;4.38;;;18.30;69.70;;;;;;10521416;28;20028;-43
2022/01/01 04:09:05;;;;;;;6.65;4.05;;;18.20;69.60;;;;;;10499724;28;20056;-45
2022/01/01 04:14:11;;;;;;;4.35;3.60;;;18.20;69.70;;;;;;10503541;28;20042;-43
2022/01/01 04:19:12;;;;;;;4.78;4.10;;;18.20;69.90;;;;;;10501268;28;20041;-46
2022/01/01 04:24:12;;;;;;;4.57;3.90;;;18.20;69.70;;;;;;10490647;28;20048;-44
2022/01/01 04:29:13;;;;;;;4.63;4.03;;;18.30;69.60;;;;;;10478247;28;20388;-48
2022/01/01 04:34:14;;;;;;;6.32;4.38;;;18.20;69.70;;;;;;10494938;28;20456;-48
2022/01/01 04:39:14;;;;;;;4.40;3.92;;;18.20;69.90;;;;;;10477718;28;20696;-45
2022/01/01 04:44:15;;;;;;;5.03;3.78;;;18.20;69.70;;;;;;10511716;28;20039;-50
2022/01/01 04:49:16;;;;;;;4.88;4.10;;;18.20;69.50;;;;;;10523769;28;20120;-48
2022/01/01 04:54:17;;;;;;;5.88;4.00;;;18.30;69.50;;;;;;10537063;28;20024;-43
2022/01/01 04:59:18;;;;;;;4.82;3.83;;;18.20;69.60;;;;;;10503308;28;20031;-45
2022/01/01 05:04:18;;;;;;;4.20;3.75;;;18.20;70.30;;;;;;10495225;28;20100;-44
2022/01/01 05:09:19;;;;;;;5.13;3.90;;;18.30;69.40;;;;;;10503689;28;20034;-47
2022/01/01 05:14:20;;;;;;;4.90;3.97;;;18.30;69.40;;;;;;10491098;28;20035;-44
2022/01/01 05:19:21;;;;;;;5.85;4.22;;;18.30;69.50;;;;;;10497242;28;20123;-44
2022/01/01 05:24:22;;;;;;;4.38;3.97;;;18.30;69.60;;;;;;10493220;28;20132;-44
2022/01/01 05:29:23;;;;;;;6.70;4.30;;;18.30;69.50;;;;;;10484655;28;20035;-46
2022/01/01 05:34:23;;;;;;;4.55;3.63;;;18.30;69.30;;;;;;10496785;28;20449;-43
2022/01/01 05:39:24;;;;;;;5.20;4.38;;;18.30;69.40;;;;;;10515606;28;20024;-47
2022/01/01 05:44:25;;;;;;;4.15;3.15;;;18.20;69.60;;;;;;10513028;28;20032;-49
2022/01/01 05:49:26;;;;;;;4.85;3.65;;;18.20;69.60;;;;;;10490825;28;20028;-48
2022/01/01 05:54:27;;;;;;;3.80;3.40;;;18.30;69.40;;;;;;10521012;28;20028;-48
2022/01/01 05:59:28;;;;;;;4.93;3.95;;;18.30;69.40;;;;;;10495790;28;20077;-46
2022/01/01 06:04:29;;;;;;;8.48;4.03;;;18.20;70.10;;;;;;10498203;28;20028;-49
2022/01/01 06:09:30;;;;;;;5.82;3.50;;;18.20;70.10;;;;;;10522334;28;20028;-51
2022/01/01 06:14:31;;;;;;;4.47;3.60;;;18.30;69.80;;;;;;10483359;28;20036;-50
2022/01/01 06:19:31;;;;;;;7.05;3.75;;;18.40;69.70;;;;;;10483387;28;20038;-46
2022/01/01 06:24:32;;;;;;;10.50;4.28;;;18.40;69.80;;;;;;10531360;28;20044;-48
2022/01/01 06:29:33;;;;;;;10.75;4.07;;;18.40;70.80;;;;;;10522224;28;20745;-49
2022/01/01 06:34:33;;;;;;;18.10;4.82;;;18.40;71.00;;;;;;10500595;28;20593;-51
2022/01/01 06:39:34;;;;;;;10.50;4.80;;;18.40;71.00;;;;;;10501089;28;20497;-51
2022/01/01 06:44:35;;;;;;;9.68;5.43;;;18.50;71.20;;;;;;10482524;28;20032;-51
2022/01/01 06:49:37;;;;;;;8.85;5.15;;;18.70;70.60;;;;;;10495093;28;20032;-50
2022/01/01 06:54:37;;;;;;;16.55;5.25;;;18.80;70.70;;;;;;10481683;28;20028;-51
2022/01/01 06:59:38;;;;;;;11.20;4.88;;;18.60;71.70;;;;;;10514528;28;20364;-49
2022/01/01 07:04:39;;;;;;;8.73;4.40;;;18.50;72.20;;;;;;10526518;28;20119;-48
2022/01/01 07:09:40;;;;;;;15.20;5.28;;;18.50;72.00;;;;;;10500215;28;20080;-51
2022/01/01 07:14:41;;;;;;;8.65;4.10;;;18.60;71.90;;;;;;10536709;28;20035;-49
2022/01/01 07:19:42;;;;;;;8.88;5.45;;;18.50;71.60;;;;;;10496087;28;20033;-50
2022/01/01 07:24:44;;;;;;;7.18;3.80;;;18.50;72.00;;;;;;10501867;28;20123;-46
2022/01/01 07:29:45;;;;;;;9.50;4.50;;;18.50;72.00;;;;;;10569630;28;20023;-50
2022/01/01 07:34:46;;;;;;;20.23;4.18;;;18.40;72.30;;;;;;10519764;28;20468;-47
2022/01/01 07:39:47;;;;;;;11.45;5.13;;;18.40;72.90;;;;;;10517100;28;20150;-51
2022/01/01 07:44:47;;;;;;;18.10;5.00;;;18.40;72.70;;;;;;10504106;28;20028;-45
2022/01/01 07:49:48;;;;;;;9.27;4.90;;;18.30;73.00;;;;;;10507279;28;20042;-48
2022/01/01 07:54:49;;;;;;;15.60;5.93;;;18.20;72.90;;;;;;10523734;28;20032;-47
2022/01/01 07:59:50;;;;;;;12.30;4.68;;;18.20;73.00;;;;;;10515748;28;20111;-46
2022/01/01 08:04:51;;;;;;;8.20;5.25;;;18.10;72.80;;;;;;10523872;28;20116;-48
2022/01/01 08:09:51;;;;;;;17.45;6.28;;;18.10;72.70;;;;;;10509750;28;20035;-47
2022/01/01 08:14:56;;;;;;;8.43;4.65;;;18.00;73.60;;;;;;10535801;28;20636;-45
2022/01/01 08:19:57;;;;;;;11.75;5.50;;;18.10;72.70;;;;;;10524881;28;20371;-47
2022/01/01 08:24:58;;;;;;;16.13;5.43;;;18.00;72.40;;;;;;10471487;28;20035;-51
2022/01/01 08:29:59;;;;;;;23.75;6.05;;;18.10;72.20;;;;;;10496116;28;20111;-47
2022/01/01 08:35:00;;;;;;;20.20;6.55;;;18.10;72.30;;;;;;10495965;28;20464;-48
2022/01/01 08:40:01;;;;;;;22.98;6.25;;;18.00;72.00;;;;;;10512413;28;20033;-44
2022/01/01 08:45:02;;;;;;;15.25;6.03;;;18.00;71.90;;;;;;10510388;28;20029;-48
2022/01/01 08:50:04;;;;;;;13.50;5.85;;;18.10;72.00;;;;;;10524006;28;20086;-47
2022/01/01 08:55:06;;;;;;;12.05;5.35;;;18.10;71.60;;;;;;10499816;28;20373;-49
2022/01/01 09:00:10;;;;;;;9.93;5.25;;;18.10;71.60;;;;;;10474562;28;20035;-51
2022/01/01 09:05:11;;;;;;;8.40;5.47;;;18.00;71.60;;;;;;10483217;28;20484;-49
2022/01/01 09:10:12;;;;;;;12.88;4.55;;;18.00;71.40;;;;;;10475223;28;20119;-50
2022/01/01 09:15:14;;;;;;;8.43;4.85;;;18.10;71.10;;;;;;10500370;28;20159;-52
2022/01/01 09:20:15;;;;;;;9.57;4.72;;;18.10;71.00;;;;;;10484805;28;20069;-53
2022/01/01 09:25:15;;;;;;;12.32;5.25;;;18.10;70.90;;;;;;10503623;28;20392;-50
2022/01/01 09:30:16;;;;;;;10.95;4.72;;;18.10;71.00;;;;;;10502685;28;20029;-47
2022/01/01 09:35:18;;;;;;;14.30;5.05;;;18.10;70.70;;;;;;10504522;28;20028;-49
2022/01/01 09:40:19;;;;;;;14.60;5.10;;;18.20;70.30;;;;;;10532208;28;20020;-48
2022/01/01 09:45:21;;;;;;;10.48;5.20;;;18.30;70.40;;;;;;10528393;28;20627;-53
2022/01/01 09:50:21;;;;;;;7.28;4.05;;;18.20;70.40;;;;;;10501988;28;20111;-52
2022/01/01 09:55:22;;;;;;;10.13;4.68;;;18.20;70.50;;;;;;10498926;28;20075;-47
2022/01/01 10:00:23;;;;;;;7.65;4.30;;;18.20;70.50;;;;;;10528946;28;20062;-47
2022/01/01 10:05:24;;;;;;;8.25;4.88;;;18.20;70.50;;;;;;10525239;28;20020;-52
2022/01/01 10:10:26;;;;;;;13.23;5.00;;;18.20;70.40;;;;;;10520797;28;20040;-53
2022/01/01 10:15:26;;;;;;;9.13;4.50;;;18.20;70.40;;;;;;10513384;28;20029;-51
2022/01/01 10:20:28;;;;;;;14.27;4.60;;;18.20;70.30;;;;;;10515915;28;20036;-53
2022/01/01 10:30:50;;;;;;;9.75;4.78;;;18.20;70.10;;;;;;10502390;28;20090;-52
2022/01/01 10:35:53;;;;;;;9.63;4.68;;;18.20;70.10;;;;;;10489933;28;20037;-55
2022/01/01 10:41:03;;;;;;;12.23;5.35;;;18.10;70.30;;;;;;10510227;28;20521;-53
2022/01/01 10:46:06;;;;;;;14.27;5.03;;;18.10;70.40;;;;;;10526875;28;20514;-56
2022/01/01 10:51:09;;;;;;;14.60;5.88;;;18.30;70.20;;;;;;10495324;28;20044;-55
2022/01/01 10:56:21;;;;;;;9.77;4.22;;;18.40;70.10;;;;;;10474328;28;20033;-56
2022/01/01 11:01:22;;;;;;;11.48;5.10;;;18.80;68.40;;;;;;10521225;28;20024;-54
2022/01/01 11:06:23;;;;;;;9.60;5.28;;;18.80;68.60;;;;;;10508269;28;20032;-55
2022/01/01 11:11:25;;;;;;;14.95;5.75;;;18.70;69.10;;;;;;10527283;28;20036;-53
2022/01/01 11:16:26;;;;;;;11.77;5.60;;;18.70;69.90;;;;;;10495479;28;20039;-55
2022/01/01 11:21:27;;;;;;;12.40;5.93;;;18.90;69.40;;;;;;10503414;28;20382;-55
2022/01/01 11:26:28;;;;;;;11.70;5.82;;;18.70;70.20;;;;;;10508408;28;20111;-55
2022/01/01 11:31:30;;;;;;;20.58;5.80;;;18.60;70.40;;;;;;10507425;28;20117;-55
2022/01/01 11:36:33;;;;;;;15.85;6.28;;;18.40;71.60;;;;;;10488015;28;20028;-55
2022/01/01 11:41:40;;;;;;;20.10;6.75;;;18.40;71.20;;;;;;10507072;28;20035;-55
2022/01/01 11:47:14;;;;;;;14.77;5.40;;;18.20;71.40;;;;;;10521758;28;20041;-56
2022/01/01 11:52:41;;;;;;;17.55;6.32;;;18.10;71.50;;;;;;10496990;28;20111;-55
2022/01/01 11:57:57;;;;;;;10.13;4.93;;;18.10;71.30;;;;;;10501193;28;20031;-56
2022/01/01 12:03:14;;;;;;;15.05;5.10;;;18.00;71.50;;;;;;10520349;28;20039;-57
2022/01/01 12:08:40;;;;;;;13.68;4.97;;;18.00;71.60;;;;;;10518953;28;20029;-57
2022/01/01 12:13:54;;;;;;;16.02;5.13;;;18.00;71.70;;;;;;10520669;28;20024;-56
2022/01/01 12:19:06;;;;;;;10.75;5.72;;;18.00;71.70;;;;;;10508513;28;20111;-60
2022/01/01 12:24:11;;;;;;;11.35;4.82;;;18.00;71.70;;;;;;10518452;28;20044;-56
2022/01/01 12:29:12;;;;;;;11.93;4.93;;;17.90;71.60;;;;;;10525364;28;20028;-56
2022/01/01 12:34:14;;;;;;;17.10;5.60;;;17.90;71.60;;;;;;10494817;28;20441;-56
2022/01/01 12:39:14;;;;;;;11.52;5.03;;;17.90;71.70;;;;;;10482928;28;20031;-56
2022/01/01 12:44:21;;;;;;;14.32;4.85;;;17.80;71.10;;;;;;10514261;28;20054;-57
2022/01/01 12:49:22;;;;;;;8.35;4.72;;;17.80;71.60;;;;;;10519470;28;20106;-55
2022/01/01 12:54:26;;;;;;;7.85;4.43;;;17.80;71.50;;;;;;10528629;28;20539;-55
2022/01/01 12:59:27;;;;;;;11.07;5.60;;;17.80;71.50;;;;;;10498336;28;20045;-55
2022/01/01 13:04:28;;;;;;;7.40;4.65;;;17.80;71.50;;;;;;10511153;28;20028;-56
2022/01/01 13:09:29;;;;;;;8.98;5.10;;;17.80;71.40;;;;;;10500831;28;20036;-56
2022/01/01 13:14:36;;;;;;;9.38;5.43;;;17.70;71.40;;;;;;10498441;28;20157;-56
2022/01/01 13:19:38;;;;;;;7.97;4.35;;;17.70;71.30;;;;;;10528302;28;20090;-60
2022/01/01 13:24:40;;;;;;;10.55;4.47;;;17.70;71.20;;;;;;10478908;28;20357;-56
2022/01/01 13:29:42;;;;;;;8.85;4.00;;;17.70;71.20;;;;;;10501580;28;20024;-54
2022/01/01 13:34:54;;;;;;;6.18;4.20;;;17.70;71.20;;;;;;10471328;28;20384;-56
2022/01/01 13:39:58;;;;;;;8.38;4.28;;;17.70;71.20;;;;;;10471495;28;20029;-55
2022/01/01 13:45:04;;;;;;;10.35;4.18;;;17.70;71.20;;;;;;10470464;28;20071;-56
2022/01/01 13:50:16;;;;;;;6.13;3.80;;;17.70;71.30;;;;;;10467899;28;20028;-56
2022/01/01 13:55:27;;;;;;;7.10;4.57;;;17.70;71.30;;;;;;10487887;28;20016;-55
2022/01/01 14:00:30;;;;;;;6.53;4.43;;;17.60;71.30;;;;;;10556563;28;20020;-56
2022/01/01 14:05:34;;;;;;;7.65;4.20;;;17.60;71.30;;;;;;10541955;28;20431;-55
2022/01/01 14:10:35;;;;;;;5.40;3.85;;;17.60;71.30;;;;;;10542011;28;20028;-55
2022/01/01 14:15:38;;;;;;;5.68;3.92;;;17.60;71.90;;;;;;10541255;28;20045;-57
2022/01/01 14:20:50;;;;;;;7.20;4.82;;;17.60;71.30;;;;;;10522847;28;20052;-56
2022/01/01 14:25:57;;;;;;;6.10;3.75;;;17.60;71.30;;;;;;10506845;28;20034;-56
2022/01/01 14:31:00;;;;;;;7.28;3.60;;;17.60;71.30;;;;;;10540983;28;20020;-57
2022/01/01 14:36:11;;;;;;;5.68;4.05;;;17.60;71.30;;;;;;10522558;28;20028;-56
2022/01/01 14:41:12;;;;;;;5.18;3.65;;;17.60;71.30;;;;;;10522557;28;20054;-56
2022/01/01 14:46:20;;;;;;;5.22;3.45;;;17.60;71.30;;;;;;10522213;28;20028;-56
2022/01/01 14:51:31;;;;;;;4.78;3.60;;;17.60;71.30;;;;;;10522082;28;20054;-55
2022/01/01 14:57:00;;;;;;;7.45;4.32;;;17.50;71.30;;;;;;10557785;28;20080;-56
2022/01/01 15:02:07;;;;;;;6.00;3.85;;;17.50;71.20;;;;;;10544193;28;20032;-56
2022/01/01 15:07:11;;;;;;;5.22;3.60;;;17.50;71.30;;;;;;10521454;28;20036;-54
2022/01/01 15:12:11;;;;;;;5.43;3.15;;;17.50;71.20;;;;;;10521348;28;20035;-55
2022/01/01 15:17:14;;;;;;;4.53;3.22;;;17.50;71.30;;;;;;10521080;28;20472;-55
2022/01/01 15:22:52;;;;;;;4.32;3.03;;;17.50;71.30;;;;;;10538355;28;20055;-58
2022/01/01 15:27:56;;;;;;;6.80;3.92;;;17.50;71.80;;;;;;10522888;28;20387;-56
2022/01/01 15:43:20;;;;;;;5.75;3.70;;;17.40;71.30;;;;;;10537710;28;20067;-56
2022/01/01 15:48:22;;;;;;;4.63;3.25;;;17.50;71.30;;;;;;10519823;28;20123;-54
2022/01/01 15:53:25;;;;;;;5.90;3.22;;;17.40;71.20;;;;;;10519657;28;20571;-56
2022/01/01 15:58:28;;;;;;;6.55;3.47;;;17.40;71.20;;;;;;10572008;28;20028;-55
2022/01/01 16:04:06;;;;;;;5.15;3.17;;;17.40;71.20;;;;;;10527919;28;20024;-55
2022/01/01 16:09:08;;;;;;;5.45;3.13;;;17.40;71.30;;;;;;10537022;28;20114;-56
2022/01/01 16:14:14;;;;;;;4.45;3.30;;;17.40;71.20;;;;;;10518809;28;20480;-56
2022/01/01 16:19:17;;;;;;;5.00;3.15;;;17.40;71.20;;;;;;10518594;28;20552;-55
2022/01/01 16:24:19;;;;;;;4.47;2.90;;;17.40;71.70;;;;;;10536471;28;20036;-55
2022/01/01 16:29:21;;;;;;;4.72;3.00;;;17.40;71.20;;;;;;10517840;28;20024;-57
2022/01/01 16:34:24;;;;;;;7.00;3.90;;;17.40;71.10;;;;;;10518336;28;20028;-56
2022/01/01 16:39:24;;;;;;;5.57;3.75;;;17.40;76.60;;;;;;10518113;28;20138;-56
2022/01/01 16:44:55;;;;;;;5.72;3.65;;;17.60;75.20;;;;;;10517879;28;20171;-55
2022/01/01 16:50:13;;;;;;;4.65;3.00;;;17.60;74.50;;;;;;10536075;28;20032;-56
2022/01/01 16:55:26;;;;;;;5.55;3.42;;;17.60;74.20;;;;;;10508232;28;20023;-56
2022/01/01 17:00:29;;;;;;;6.57;3.42;;;17.60;74.20;;;;;;10551989;28;20081;-55
2022/01/01 17:05:33;;;;;;;4.57;3.00;;;17.50;73.80;;;;;;10518504;28;20070;-57
2022/01/01 17:10:34;;;;;;;5.53;3.63;;;17.50;73.80;;;;;;10517772;28;20099;-57
2022/01/01 17:16:05;;;;;;;4.63;3.30;;;17.50;73.80;;;;;;10517322;28;20028;-55
2022/01/01 17:21:08;;;;;;;4.03;2.33;;;17.50;73.80;;;;;;10517351;28;20047;-56
2022/01/01 17:26:09;;;;;;;4.35;3.17;;;17.50;73.70;;;;;;10500529;28;20476;-56
2022/01/01 17:31:12;;;;;;;3.85;2.80;;;17.40;73.50;;;;;;10518943;28;20430;-56
2022/01/01 17:41:19;;;;;;;3.50;2.80;;;17.40;73.50;;;;;;10525467;28;20560;-55
2022/01/01 17:46:20;;;;;;;5.43;2.67;;;17.40;73.40;;;;;;10524704;28;20028;-56
2022/01/01 17:51:22;;;;;;;4.50;2.63;;;17.40;73.40;;;;;;10524271;28;20016;-56
2022/01/01 17:56:23;;;;;;;4.22;3.05;;;17.40;73.30;;;;;;10541081;28;20383;-54
2022/01/01 18:01:24;;;;;;;3.92;2.60;;;17.40;73.30;;;;;;10532994;28;20024;-56
2022/01/01 18:06:26;;;;;;;5.95;2.50;;;17.30;73.20;;;;;;10524054;28;20369;-57
2022/01/01 18:11:31;;;;;;;4.78;3.05;;;17.30;73.10;;;;;;10523539;28;20028;-56
2022/01/01 18:16:32;;;;;;;3.88;2.97;;;17.30;73.10;;;;;;10523613;28;20020;-56
2022/01/01 18:21:37;;;;;;;3.60;2.40;;;17.30;73.00;;;;;;10523215;28;20048;-56
2022/01/01 18:26:53;;;;;;;4.22;2.63;;;17.30;73.00;;;;;;10523290;28;20097;-54
2022/01/01 18:31:56;;;;;;;3.60;2.05;;;17.30;73.00;;;;;;10524388;28;20067;-56
2022/01/01 18:36:57;;;;;;;4.13;2.70;;;17.30;73.00;;;;;;10522793;28;20024;-55
2022/01/01 18:41:59;;;;;;;4.57;2.65;;;17.30;72.80;;;;;;10521900;28;20028;-56
2022/01/01 18:47:02;;;;;;;3.05;2.35;;;17.30;72.80;;;;;;10522468;28;20143;-56
2022/01/01 18:52:07;;;;;;;4.13;2.90;;;17.20;72.70;;;;;;10521958;28;20032;-56
2022/01/01 18:57:22;;;;;;;3.30;2.45;;;17.30;72.80;;;;;;10563030;28;20020;-56
2022/01/01 19:02:25;;;;;;;3.80;2.78;;;17.30;72.80;;;;;;10539808;28;20043;-56
2022/01/01 19:07:28;;;;;;;3.45;2.30;;;17.20;72.70;;;;;;10521551;28;20023;-56
2022/01/01 19:12:48;;;;;;;3.80;2.78;;;17.20;72.60;;;;;;10521371;28;20028;-56
2022/01/01 19:17:50;;;;;;;3.70;2.73;;;17.20;72.60;;;;;;10523925;28;20034;-55
2022/01/01 19:22:52;;;;;;;4.18;2.63;;;17.20;72.50;;;;;;10520928;28;20040;-56
2022/01/01 19:27:59;;;;;;;4.45;2.30;;;17.20;72.60;;;;;;10520595;28;20051;-56
2022/01/01 19:33:02;;;;;;;3.45;2.40;;;17.20;72.50;;;;;;10503950;28;20056;-57
2022/01/01 19:38:03;;;;;;;3.53;2.35;;;17.20;72.50;;;;;;10520384;28;20027;-55
2022/01/01 19:43:25;;;;;;;3.75;2.03;;;17.20;72.50;;;;;;10538658;28;20032;-55
2022/01/01 19:48:33;;;;;;;2.63;2.00;;;17.20;72.40;;;;;;10538014;28;20063;-54
2022/01/01 19:53:33;;;;;;;3.28;2.20;;;17.10;72.30;;;;;;10519968;28;20037;-57
2022/01/01 19:58:34;;;;;;;3.30;2.10;;;17.10;72.40;;;;;;10554599;28;20543;-55
2022/01/01 20:03:35;;;;;;;3.67;2.28;;;17.10;72.30;;;;;;10484917;28;20025;-56
2022/01/01 20:08:36;;;;;;;3.72;2.47;;;17.10;72.30;;;;;;10495204;28;20034;-56
2022/01/01 20:13:36;;;;;;;3.28;2.10;;;17.10;72.30;;;;;;10477060;28;20081;-56
2022/01/01 20:18:37;;;;;;;3.35;2.03;;;17.10;72.20;;;;;;10477297;28;20032;-56
2022/01/01 20:23:38;;;;;;;3.22;2.13;;;17.10;72.20;;;;;;10494816;28;20040;-56
2022/01/01 20:28:39;;;;;;;4.07;2.33;;;17.10;72.20;;;;;;10495308;28;20542;-56
2022/01/01 20:33:40;;;;;;;3.40;2.00;;;17.10;72.20;;;;;;10494350;28;20036;-56
2022/01/01 20:38:41;;;;;;;2.72;1.92;;;17.10;72.20;;;;;;10493286;28;20074;-55
2022/01/01 20:43:42;;;;;;;3.97;2.30;;;17.10;72.10;;;;;;10476463;28;20455;-55
2022/01/01 20:48:42;;;;;;;3.72;2.20;;;17.10;72.10;;;;;;10476314;28;20035;-55
2022/01/01 20:53:43;;;;;;;3.05;1.95;;;17.10;72.10;;;;;;10494230;28;20021;-55
2022/01/01 20:58:44;;;;;;;2.95;2.10;;;17.10;72.10;;;;;;10548899;28;20133;-55
2022/01/01 21:03:58;;;;;;;3.35;2.15;;;17.10;72.00;;;;;;10523845;28;20034;-55
2022/01/01 21:09:01;;;;;;;2.50;1.60;;;17.00;72.00;;;;;;10508507;28;20060;-55
2022/01/01 21:14:04;;;;;;;3.15;1.92;;;17.00;72.00;;;;;;10544006;28;20028;-56
2022/01/01 21:19:06;;;;;;;2.65;1.95;;;17.00;72.00;;;;;;10543655;28;20120;-56
2022/01/01 21:24:07;;;;;;;3.05;1.80;;;17.00;72.00;;;;;;10508932;28;20503;-56
2022/01/01 21:29:08;;;;;;;2.60;1.90;;;17.00;72.00;;;;;;10525643;28;20051;-55
2022/01/01 21:34:09;;;;;;;2.97;1.92;;;17.00;71.90;;;;;;10525173;28;20036;-55
2022/01/01 21:39:09;;;;;;;2.75;1.65;;;17.00;71.90;;;;;;10525440;28;20111;-55
2022/01/01 21:44:10;;;;;;;2.85;2.00;;;17.00;71.90;;;;;;10542924;28;20107;-56
2022/01/01 21:49:11;;;;;;;2.28;1.90;;;17.00;71.90;;;;;;10524654;28;20106;-55
2022/01/01 21:54:12;;;;;;;2.80;1.63;;;17.00;71.90;;;;;;10524354;28;20043;-55
2022/01/01 21:59:13;;;;;;;2.35;1.92;;;17.00;71.80;;;;;;10564897;28;20020;-56
2022/01/01 22:04:13;;;;;;;2.70;1.73;;;17.00;71.80;;;;;;10526016;28;20472;-57
2022/01/01 22:09:14;;;;;;;2.22;1.77;;;17.00;71.80;;;;;;10523753;28;20024;-56
2022/01/01 22:14:15;;;;;;;2.05;1.60;;;17.00;71.80;;;;;;10542032;28;20103;-56
2022/01/01 22:19:16;;;;;;;3.53;1.90;;;17.00;71.80;;;;;;10540908;28;20103;-55
2022/01/01 22:24:16;;;;;;;2.97;1.83;;;17.00;71.80;;;;;;10541171;28;20573;-55
2022/01/01 22:29:17;;;;;;;2.97;1.85;;;17.00;71.80;;;;;;10541197;28;20034;-56
2022/01/01 22:34:18;;;;;;;3.10;2.03;;;17.00;71.70;;;;;;10522748;28;20102;-56
2022/01/01 22:39:18;;;;;;;3.00;1.90;;;16.90;71.70;;;;;;10540655;28;20115;-56
2022/01/01 22:44:21;;;;;;;2.80;1.77;;;16.90;71.70;;;;;;10541087;28;20024;-56
2022/01/01 22:49:23;;;;;;;2.80;1.98;;;16.90;71.70;;;;;;10540837;28;20111;-56
2022/01/01 22:54:24;;;;;;;2.95;1.88;;;16.90;71.70;;;;;;10522547;28;20039;-55
2022/01/01 22:59:25;;;;;;;2.22;1.60;;;16.90;71.70;;;;;;10582751;28;20441;-55
2022/01/01 23:04:26;;;;;;;1.88;1.42;;;16.90;71.70;;;;;;10540001;28;20040;-54
2022/01/01 23:09:27;;;;;;;2.35;1.70;;;16.90;71.70;;;;;;10539579;28;20024;-56
2022/01/01 23:14:28;;;;;;;2.15;1.60;;;16.90;71.70;;;;;;10539458;28;20031;-54
2022/01/01 23:19:29;;;;;;;2.70;1.70;;;16.90;71.70;;;;;;10504418;28;20438;-56
2022/01/01 23:24:35;;;;;;;2.45;1.50;;;16.90;71.60;;;;;;10521203;28;20105;-55
2022/01/01 23:29:37;;;;;;;2.45;1.58;;;16.90;71.60;;;;;;10538414;28;20068;-55
2022/01/01 23:34:43;;;;;;;2.58;1.80;;;16.90;71.60;;;;;;10503974;28;20051;-56
2022/01/01 23:39:44;;;;;;;2.65;1.70;;;16.90;71.60;;;;;;10520185;28;20057;-56
2022/01/01 23:44:46;;;;;;;2.55;1.48;;;16.90;71.60;;;;;;10520016;28;20537;-56
2022/01/01 23:49:47;;;;;;;1.58;1.10;;;16.80;71.60;;;;;;10503087;28;20476;-56
2022/01/01 23:55:05;;;;;;;3.45;1.80;;;16.90;71.60;;;;;;10523010;28;20031;-55
